Kansas City, Missouri
Traffic Map
Current Weather Conditions
Kansas City, Missouri
Clear
Clear
70°
Feels Like: 70°
Wind Chill: 70° Ceiling: Unl
Heat Index: 70° Visibility: 10mi
Dew Point: 38° Wind: 17mph
Humidity: 31% Direction: 200° (SSW)
Pressure: 29.68in Gusts: 0mph
Raw Report DataKMKC 282354Z 20015KT 10SM CLR 21/03 A2968 RMK AO2 SLP050 60000 T02110033 10244 20200 56014
Traffic Incident Summary
Active as of:
Severity:
Category:
InformationThere was an issue retrieving the traffic information for this location. Please try a different location or try again shortly.
Advertisements
Track Severe Weather on mobile